createdAt,value
2023-03-06T00:02:28.768Z,97309.00
2023-03-06T00:05:04.112Z,97303.00
2023-03-06T00:07:39.211Z,97304.00
2023-03-06T00:10:24.398Z,97290.00
2023-03-06T00:13:12.505Z,97301.00
2023-03-06T00:15:48.875Z,97291.00
2023-03-06T00:18:23.906Z,97292.00
2023-03-06T00:20:59.046Z,97294.00
2023-03-06T00:23:34.282Z,97292.00
2023-03-06T00:26:09.825Z,97289.00
2023-03-06T00:28:46.034Z,97277.00
2023-03-06T00:31:21.135Z,97280.00
2023-03-06T00:33:56.054Z,97276.00
2023-03-06T00:36:31.068Z,97276.00
2023-03-06T00:39:06.031Z,97278.00
2023-03-06T00:41:40.992Z,97269.00
2023-03-06T00:44:15.995Z,97272.00
2023-03-06T00:46:50.971Z,97261.00
2023-03-06T00:49:25.918Z,97263.00
2023-03-06T00:52:01.318Z,97259.00
2023-03-06T00:54:36.266Z,97267.00
2023-03-06T00:57:11.662Z,97254.00
2023-03-06T00:59:46.630Z,97258.00
2023-03-06T01:02:21.725Z,97257.00
2023-03-06T01:04:57.132Z,97245.00
2023-03-06T01:07:36.394Z,97243.00
2023-03-06T01:10:12.186Z,97244.00
2023-03-06T01:12:47.112Z,97239.00
2023-03-06T01:15:22.528Z,97230.00
2023-03-06T01:17:57.446Z,97232.00
2023-03-06T01:20:32.509Z,97234.00
2023-03-06T01:23:07.530Z,97236.00
2023-03-06T01:25:42.411Z,97240.00
2023-03-06T01:28:17.335Z,97222.00
2023-03-06T01:30:52.263Z,97232.00
2023-03-06T01:33:27.555Z,97224.00
2023-03-06T01:36:09.017Z,97231.00
2023-03-06T01:38:44.085Z,97222.00
2023-03-06T01:41:21.175Z,97221.00
2023-03-06T01:43:56.216Z,97214.00
2023-03-06T01:46:42.383Z,97218.00
2023-03-06T01:49:37.064Z,97209.00
2023-03-06T01:52:19.332Z,97205.00
2023-03-06T01:55:02.458Z,97208.00
2023-03-06T01:57:44.261Z,97197.00
2023-03-06T02:00:24.563Z,97192.00
2023-03-06T02:03:07.954Z,97202.00
2023-03-06T02:05:46.307Z,97182.00
2023-03-06T02:08:23.414Z,97188.00
2023-03-06T02:11:05.126Z,97191.00
2023-03-06T02:13:42.033Z,97179.00
2023-03-06T02:16:18.136Z,97179.00
2023-03-06T02:18:54.163Z,97168.00
2023-03-06T02:21:37.027Z,97152.00
2023-03-06T02:24:36.879Z,97159.00
2023-03-06T02:27:14.262Z,97159.00
2023-03-06T02:29:49.531Z,97159.00
2023-03-06T02:32:24.683Z,97148.00
2023-03-06T02:34:59.670Z,97135.00
2023-03-06T02:37:34.742Z,97136.00
2023-03-06T02:40:12.801Z,97144.00
2023-03-06T02:42:56.516Z,97142.00
2023-03-06T02:45:39.737Z,97132.00
2023-03-06T02:48:17.675Z,97136.00
2023-03-06T02:50:54.095Z,97138.00
2023-03-06T02:53:29.111Z,97131.00
2023-03-06T02:56:04.152Z,97137.00
2023-03-06T02:58:39.315Z,97138.00
2023-03-06T03:01:15.146Z,97133.00
2023-03-06T03:03:51.088Z,97138.00
2023-03-06T03:06:26.362Z,97130.00
2023-03-06T03:09:01.908Z,97132.00
2023-03-06T03:11:37.373Z,97125.00
2023-03-06T03:14:12.576Z,97131.00
2023-03-06T03:16:47.533Z,97125.00
2023-03-06T03:19:22.476Z,97120.00
2023-03-06T03:21:57.682Z,97128.00
2023-03-06T03:24:33.079Z,97120.00
2023-03-06T03:27:10.244Z,97114.00
2023-03-06T03:29:45.249Z,97108.00
2023-03-06T03:32:20.459Z,97112.00
2023-03-06T03:34:56.230Z,97104.00
2023-03-06T03:37:34.679Z,97110.00
2023-03-06T03:40:10.863Z,97109.00
2023-03-06T03:42:46.001Z,97116.00
2023-03-06T03:45:22.153Z,97109.00
2023-03-06T03:47:57.287Z,97108.00
2023-03-06T03:50:34.167Z,97118.00
2023-03-06T03:53:09.553Z,97103.00
2023-03-06T03:55:47.940Z,97109.00
2023-03-06T03:58:24.442Z,97104.00
2023-03-06T04:00:59.428Z,97103.00
2023-03-06T04:03:34.745Z,97097.00
2023-03-06T04:06:10.407Z,97097.00
2023-03-06T04:08:46.029Z,97093.00
2023-03-06T04:11:21.979Z,97084.00
2023-03-06T04:13:57.373Z,97073.00
2023-03-06T04:16:32.687Z,97080.00
2023-03-06T04:19:07.790Z,97081.00
2023-03-06T04:21:43.161Z,97084.00
2023-03-06T04:24:18.158Z,97082.00
2023-03-06T04:26:54.104Z,97082.00
2023-03-06T04:29:29.197Z,97072.00
2023-03-06T04:32:04.354Z,97075.00
2023-03-06T04:34:40.003Z,97078.00
2023-03-06T04:37:21.402Z,97071.00
2023-03-06T04:39:57.291Z,97060.00
2023-03-06T04:42:33.351Z,97060.00
2023-03-06T04:45:09.191Z,97068.00
2023-03-06T04:47:44.553Z,97061.00
2023-03-06T04:50:20.608Z,97060.00
2023-03-06T04:52:57.592Z,97062.00
2023-03-06T04:55:32.645Z,97058.00
2023-03-06T04:58:07.565Z,97061.00
2023-03-06T05:00:42.614Z,97055.00
2023-03-06T05:03:17.602Z,97060.00
2023-03-06T05:05:52.722Z,97046.00
2023-03-06T05:08:28.118Z,97049.00
2023-03-06T05:11:03.156Z,97063.00
2023-03-06T05:13:38.259Z,97056.00
2023-03-06T05:16:13.295Z,97059.00
2023-03-06T05:18:50.516Z,97052.00
2023-03-06T05:21:25.653Z,97052.00
2023-03-06T05:24:02.364Z,97050.00
2023-03-06T05:26:37.522Z,97044.00
2023-03-06T05:29:12.737Z,97060.00
2023-03-06T05:31:47.718Z,97054.00
2023-03-06T05:34:22.892Z,97049.00
2023-03-06T05:36:57.955Z,97057.00
2023-03-06T05:39:32.938Z,97051.00
2023-03-06T05:42:08.057Z,97038.00
2023-03-06T05:44:43.059Z,97047.00
2023-03-06T05:47:17.975Z,97048.00
2023-03-06T05:49:52.882Z,97053.00
2023-03-06T05:52:27.884Z,97044.00
2023-03-06T05:55:03.908Z,97042.00
2023-03-06T05:57:38.856Z,97045.00
2023-03-06T06:00:15.529Z,97044.00
2023-03-06T06:02:52.617Z,97045.00
2023-03-06T06:05:27.557Z,97039.00
2023-03-06T06:08:02.530Z,97045.00
2023-03-06T06:10:38.835Z,97040.00
2023-03-06T06:13:13.778Z,97043.00
2023-03-06T06:15:48.783Z,97043.00
2023-03-06T06:18:23.674Z,97041.00
2023-03-06T06:20:58.605Z,97040.00
2023-03-06T06:23:33.578Z,97045.00
2023-03-06T06:26:09.940Z,97042.00
2023-03-06T06:28:44.821Z,97051.00
2023-03-06T06:31:19.842Z,97045.00
2023-03-06T06:33:54.791Z,97047.00
2023-03-06T06:36:29.876Z,97043.00
2023-03-06T06:39:06.331Z,97045.00
2023-03-06T06:41:59.329Z,97043.00
2023-03-06T06:44:38.053Z,97050.00
2023-03-06T06:47:28.413Z,97041.00
2023-03-06T06:50:03.668Z,97042.00
2023-03-06T06:52:38.865Z,97043.00
2023-03-06T06:55:13.868Z,97043.00
2023-03-06T06:57:48.777Z,97055.00
2023-03-06T07:00:24.316Z,97051.00
2023-03-06T07:02:59.270Z,97038.00
2023-03-06T07:05:34.707Z,97049.00
2023-03-06T07:08:10.054Z,97049.00
2023-03-06T07:10:45.082Z,97049.00
2023-03-06T07:13:20.260Z,97053.00
2023-03-06T07:15:55.161Z,97056.00
2023-03-06T07:18:30.604Z,97053.00
2023-03-06T07:21:05.942Z,97063.00
2023-03-06T07:23:41.198Z,97061.00
2023-03-06T07:26:16.136Z,97058.00
2023-03-06T07:28:53.641Z,97058.00
2023-03-06T07:31:28.823Z,97063.00
2023-03-06T07:34:05.123Z,97059.00
2023-03-06T07:36:40.762Z,97069.00
2023-03-06T07:39:15.646Z,97066.00
2023-03-06T07:41:52.145Z,97067.00
2023-03-06T07:44:27.983Z,97075.00
2023-03-06T07:47:03.361Z,97082.00
2023-03-06T07:49:38.356Z,97080.00
2023-03-06T07:52:13.742Z,97084.00
2023-03-06T07:54:49.265Z,97079.00
2023-03-06T07:57:24.223Z,97076.00
2023-03-06T07:59:59.891Z,97087.00
2023-03-06T08:02:34.854Z,97085.00
2023-03-06T08:05:14.634Z,97091.00
2023-03-06T08:07:49.597Z,97083.00
2023-03-06T08:10:24.497Z,97092.00
2023-03-06T08:12:59.652Z,97093.00
2023-03-06T08:15:34.590Z,97083.00
2023-03-06T08:18:09.462Z,97082.00
2023-03-06T08:20:44.488Z,97087.00
2023-03-06T08:23:19.496Z,97084.00
2023-03-06T08:26:04.431Z,97088.00
2023-03-06T08:28:39.832Z,97082.00
2023-03-06T08:31:33.451Z,97081.00
2023-03-06T08:34:12.835Z,97079.00
2023-03-06T08:36:47.854Z,97089.00
2023-03-06T08:39:23.704Z,97092.00
2023-03-06T08:41:58.857Z,97095.00
2023-03-06T08:44:34.337Z,97088.00
2023-03-06T08:47:09.260Z,97095.00
2023-03-06T08:49:44.196Z,97096.00
2023-03-06T08:52:19.888Z,97090.00
2023-03-06T08:54:54.853Z,97090.00
2023-03-06T08:57:30.605Z,97097.00
2023-03-06T09:00:10.826Z,97103.00
2023-03-06T09:02:45.813Z,97103.00
2023-03-06T09:05:20.831Z,97088.00
2023-03-06T09:07:55.871Z,97096.00
2023-03-06T09:10:30.820Z,97092.00
2023-03-06T09:13:05.834Z,97097.00
2023-03-06T09:15:40.842Z,97099.00
2023-03-06T09:18:15.808Z,97096.00
2023-03-06T09:20:50.999Z,97097.00
2023-03-06T09:23:26.103Z,97091.00
2023-03-06T09:26:02.014Z,97107.00
2023-03-06T09:28:39.093Z,97103.00
2023-03-06T09:31:19.833Z,97108.00
2023-03-06T09:33:54.957Z,97113.00
2023-03-06T09:36:30.323Z,97102.00
2023-03-06T09:39:05.327Z,97105.00
2023-03-06T09:41:41.821Z,97113.00
2023-03-06T09:44:20.445Z,97109.00
2023-03-06T09:47:17.230Z,97119.00
2023-03-06T09:50:14.366Z,97113.00
2023-03-06T09:53:25.416Z,97107.00
2023-03-06T09:56:06.811Z,97106.00
2023-03-06T09:58:51.530Z,97123.00
2023-03-06T10:01:31.608Z,97112.00
2023-03-06T10:04:44.262Z,97111.00
2023-03-06T10:07:29.435Z,97102.00
2023-03-06T10:10:07.292Z,97114.00
2023-03-06T10:12:52.154Z,97113.00
2023-03-06T10:15:37.293Z,97112.00
2023-03-06T10:18:13.042Z,97107.00
2023-03-06T10:21:18.631Z,97120.00
2023-03-06T10:24:25.439Z,97122.00
2023-03-06T10:27:23.431Z,97107.00
2023-03-06T10:30:23.098Z,97115.00
2023-03-06T10:33:44.830Z,97109.00
2023-03-06T10:36:22.530Z,97116.00
2023-03-06T10:38:59.709Z,97102.00
2023-03-06T10:41:36.602Z,97117.00
2023-03-06T10:44:11.557Z,97107.00
2023-03-06T10:46:51.524Z,97108.00
2023-03-06T10:49:33.614Z,97110.00
2023-03-06T10:52:14.714Z,97117.00
2023-03-06T10:54:49.692Z,97114.00
2023-03-06T10:57:30.179Z,97119.00
2023-03-06T11:00:23.872Z,97108.00
2023-03-06T11:03:24.122Z,97107.00
2023-03-06T11:06:11.540Z,97104.00
2023-03-06T11:08:47.668Z,97106.00
2023-03-06T11:11:36.733Z,97102.00
2023-03-06T11:14:27.576Z,97097.00
2023-03-06T11:17:02.621Z,97091.00
2023-03-06T11:19:37.615Z,97093.00
2023-03-06T11:22:19.770Z,97085.00
2023-03-06T11:24:55.880Z,97098.00
2023-03-06T11:27:36.653Z,97090.00
2023-03-06T11:30:26.615Z,97088.00
2023-03-06T11:33:14.599Z,97092.00
2023-03-06T11:36:00.838Z,97098.00
2023-03-06T11:38:50.532Z,97081.00
2023-03-06T11:41:57.972Z,97082.00
2023-03-06T11:45:15.932Z,97082.00
2023-03-06T11:48:17.541Z,97076.00
2023-03-06T11:50:59.699Z,97075.00
2023-03-06T11:53:38.289Z,97059.00
2023-03-06T11:56:19.290Z,97060.00
2023-03-06T11:59:31.763Z,97056.00
2023-03-06T12:02:59.494Z,97058.00
2023-03-06T12:05:47.422Z,97042.00
2023-03-06T12:08:50.188Z,97054.00
2023-03-06T12:11:37.754Z,97046.00
2023-03-06T12:14:33.392Z,97042.00
2023-03-06T12:17:50.053Z,97044.00
2023-03-06T12:21:00.194Z,97040.00
2023-03-06T12:24:17.543Z,97040.00
2023-03-06T12:27:24.902Z,97042.00
2023-03-06T12:30:06.530Z,97039.00
2023-03-06T12:33:28.289Z,97030.00
2023-03-06T12:36:22.026Z,97033.00
2023-03-06T12:39:25.673Z,97032.00
2023-03-06T12:42:36.524Z,97025.00
2023-03-06T12:45:37.854Z,97033.00
2023-03-06T12:48:23.718Z,97027.00
2023-03-06T12:50:59.834Z,97018.00
2023-03-06T12:53:35.867Z,97020.00
2023-03-06T12:56:16.167Z,97021.00
2023-03-06T12:58:53.806Z,97019.00
2023-03-06T13:02:01.012Z,97022.00
2023-03-06T13:05:00.400Z,97016.00
2023-03-06T13:08:00.949Z,97020.00
2023-03-06T13:10:40.250Z,97014.00
2023-03-06T13:13:45.488Z,97016.00
2023-03-06T13:16:30.890Z,97011.00
2023-03-06T13:19:23.407Z,97012.00
2023-03-06T13:21:58.352Z,97027.00
2023-03-06T13:24:37.748Z,97013.00
2023-03-06T13:27:44.835Z,97010.00
2023-03-06T13:30:44.098Z,97016.00
2023-03-06T13:33:30.056Z,97011.00
2023-03-06T13:36:37.604Z,97009.00
2023-03-06T13:39:14.106Z,97012.00
2023-03-06T13:41:56.397Z,97015.00
2023-03-06T13:44:31.233Z,97031.00
2023-03-06T13:47:19.729Z,97009.00
2023-03-06T13:49:54.777Z,97007.00
2023-03-06T13:53:11.453Z,97004.00
2023-03-06T13:55:58.254Z,97012.00
2023-03-06T13:58:49.905Z,97011.00
2023-03-06T14:02:04.334Z,97006.00
2023-03-06T14:05:00.234Z,97013.00
2023-03-06T14:07:43.297Z,97012.00
2023-03-06T14:10:26.077Z,97001.00
2023-03-06T14:13:18.621Z,96993.00
2023-03-06T14:15:55.672Z,97004.00
2023-03-06T14:18:48.830Z,96997.00
2023-03-06T14:21:31.408Z,96996.00
2023-03-06T14:24:06.512Z,96989.00
2023-03-06T14:26:46.713Z,96999.00
2023-03-06T14:29:28.625Z,96992.00
2023-03-06T14:32:05.958Z,96990.00
2023-03-06T14:34:45.940Z,96996.00
2023-03-06T14:37:25.174Z,96985.00
2023-03-06T14:40:00.315Z,96978.00
2023-03-06T14:42:35.354Z,97003.00
2023-03-06T14:45:19.290Z,96990.00
2023-03-06T14:47:54.324Z,96981.00
2023-03-06T14:50:33.444Z,96981.00
2023-03-06T14:53:27.289Z,96983.00
2023-03-06T14:56:06.418Z,96978.00
2023-03-06T14:58:57.896Z,96972.00
2023-03-06T15:01:41.562Z,96991.00
2023-03-06T15:04:39.479Z,96980.00
2023-03-06T15:07:25.567Z,97001.00
2023-03-06T15:10:01.453Z,96987.00
2023-03-06T15:12:38.845Z,96984.00
2023-03-06T15:15:14.908Z,96978.00
2023-03-06T15:17:50.051Z,96977.00
2023-03-06T15:20:53.170Z,96969.00
2023-03-06T15:23:44.097Z,96966.00
2023-03-06T15:26:29.284Z,96981.00
2023-03-06T15:29:11.042Z,96972.00
2023-03-06T15:31:46.792Z,96973.00
2023-03-06T15:34:25.912Z,96969.00
2023-03-06T15:37:00.955Z,96972.00
2023-03-06T15:39:41.747Z,96973.00
2023-03-06T15:42:23.411Z,96978.00
2023-03-06T15:45:05.653Z,96975.00
2023-03-06T15:47:40.769Z,96977.00
2023-03-06T15:50:19.401Z,96972.00
2023-03-06T15:52:55.040Z,96972.00
2023-03-06T15:55:30.193Z,96976.00
2023-03-06T15:58:15.089Z,96988.00
2023-03-06T16:00:50.739Z,96981.00
2023-03-06T16:03:25.862Z,96997.00
2023-03-06T16:06:00.936Z,96998.00
2023-03-06T16:08:36.166Z,97002.00
2023-03-06T16:11:35.240Z,96997.00
2023-03-06T16:14:23.730Z,97009.00
2023-03-06T16:16:59.667Z,97009.00
2023-03-06T16:19:34.674Z,97013.00
2023-03-06T16:22:09.691Z,97005.00
2023-03-06T16:24:44.672Z,97007.00
2023-03-06T16:27:20.559Z,97012.00
2023-03-06T16:29:56.234Z,97003.00
2023-03-06T16:32:31.626Z,97010.00
2023-03-06T16:35:07.050Z,97011.00
2023-03-06T16:37:42.642Z,97009.00
2023-03-06T16:40:22.185Z,97011.00
2023-03-06T16:42:57.177Z,97018.00
2023-03-06T16:45:36.775Z,97024.00
2023-03-06T16:48:16.961Z,97024.00
2023-03-06T16:50:52.013Z,97026.00
2023-03-06T16:53:27.110Z,97021.00
2023-03-06T16:56:02.160Z,97028.00
2023-03-06T16:58:37.342Z,97022.00
2023-03-06T17:01:18.910Z,97032.00
2023-03-06T17:03:54.809Z,97029.00
2023-03-06T17:06:30.241Z,97026.00
2023-03-06T17:09:05.561Z,97039.00
2023-03-06T17:11:42.936Z,97034.00
2023-03-06T17:14:17.910Z,97030.00
2023-03-06T17:16:54.152Z,97032.00
2023-03-06T17:19:31.474Z,97044.00
2023-03-06T17:22:06.349Z,97033.00
2023-03-06T17:24:41.805Z,97048.00
2023-03-06T17:27:18.798Z,97038.00
2023-03-06T17:29:57.689Z,97041.00
2023-03-06T17:32:33.481Z,97050.00
2023-03-06T17:35:09.535Z,97042.00
2023-03-06T17:37:44.484Z,97047.00
2023-03-06T17:40:19.546Z,97049.00
2023-03-06T17:42:54.456Z,97055.00
2023-03-06T17:45:29.511Z,97058.00
2023-03-06T17:48:04.731Z,97057.00
2023-03-06T17:50:39.622Z,97056.00
2023-03-06T17:53:14.527Z,97056.00
2023-03-06T17:55:49.524Z,97072.00
2023-03-06T17:58:25.986Z,97071.00
2023-03-06T18:01:01.804Z,97068.00
2023-03-06T18:03:38.572Z,97066.00
2023-03-06T18:06:15.226Z,97065.00
2023-03-06T18:08:52.727Z,97064.00
2023-03-06T18:11:28.519Z,97062.00
2023-03-06T18:14:05.538Z,97065.00
2023-03-06T18:16:40.821Z,97070.00
2023-03-06T18:19:16.491Z,97064.00
2023-03-06T18:21:51.428Z,97058.00
2023-03-06T18:24:26.403Z,97062.00
2023-03-06T18:27:02.185Z,97057.00
2023-03-06T18:29:37.110Z,97067.00
2023-03-06T18:32:12.086Z,97056.00
2023-03-06T18:34:46.998Z,97067.00
2023-03-06T18:37:22.080Z,97066.00
2023-03-06T18:39:57.087Z,97061.00
2023-03-06T18:42:33.141Z,97062.00
2023-03-06T18:45:08.856Z,97061.00
2023-03-06T18:47:43.814Z,97055.00
2023-03-06T18:50:20.072Z,97066.00
2023-03-06T18:52:55.315Z,97063.00
2023-03-06T18:55:30.635Z,97068.00
2023-03-06T18:58:06.165Z,97054.00
2023-03-06T19:00:41.122Z,97057.00
2023-03-06T19:03:16.814Z,97059.00
2023-03-06T19:05:51.942Z,97062.00
2023-03-06T19:08:26.885Z,97064.00
2023-03-06T19:11:04.765Z,97059.00
2023-03-06T19:13:39.702Z,97056.00
2023-03-06T19:16:25.197Z,97055.00
2023-03-06T19:19:00.537Z,97052.00
2023-03-06T19:21:35.466Z,97051.00
2023-03-06T19:24:14.017Z,97053.00
2023-03-06T19:26:49.125Z,97053.00
2023-03-06T19:29:24.110Z,97053.00
2023-03-06T19:31:59.517Z,97055.00
2023-03-06T19:34:34.694Z,97055.00
2023-03-06T19:37:09.678Z,97056.00
2023-03-06T19:39:45.487Z,97054.00
2023-03-06T19:42:20.576Z,97064.00
2023-03-06T19:44:55.607Z,97050.00
2023-03-06T19:47:30.650Z,97044.00
2023-03-06T19:50:06.358Z,97050.00
2023-03-06T19:52:41.289Z,97055.00
2023-03-06T19:55:16.327Z,97050.00
2023-03-06T19:57:53.173Z,97051.00
2023-03-06T20:00:28.494Z,97055.00
2023-03-06T20:03:03.809Z,97041.00
2023-03-06T20:05:46.852Z,97044.00
2023-03-06T20:08:21.847Z,97053.00
2023-03-06T20:10:57.492Z,97053.00
2023-03-06T20:13:32.773Z,97053.00
2023-03-06T20:16:08.004Z,97049.00
2023-03-06T20:18:43.344Z,97051.00
2023-03-06T20:21:19.430Z,97043.00
2023-03-06T20:23:57.862Z,97042.00
2023-03-06T20:26:34.821Z,97042.00
2023-03-06T20:29:10.779Z,97037.00
2023-03-06T20:31:45.854Z,97035.00
2023-03-06T20:34:21.770Z,97034.00
2023-03-06T20:36:57.867Z,97037.00
2023-03-06T20:39:33.492Z,97032.00
2023-03-06T20:42:08.433Z,97035.00
2023-03-06T20:44:44.538Z,97039.00
2023-03-06T20:47:19.419Z,97035.00
2023-03-06T20:49:54.421Z,97040.00
2023-03-06T20:52:29.301Z,97037.00
2023-03-06T20:55:04.680Z,97035.00
2023-03-06T20:57:39.553Z,97027.00
2023-03-06T21:00:16.080Z,97030.00
2023-03-06T21:02:51.036Z,97031.00
2023-03-06T21:05:25.963Z,97033.00
2023-03-06T21:08:00.923Z,97029.00
2023-03-06T21:10:37.961Z,97028.00
2023-03-06T21:13:13.759Z,97017.00
2023-03-06T21:15:48.693Z,97023.00
2023-03-06T21:18:23.886Z,97018.00
2023-03-06T21:20:58.801Z,97011.00
2023-03-06T21:23:33.732Z,97006.00
2023-03-06T21:26:17.873Z,97011.00
2023-03-06T21:28:53.191Z,97008.00
2023-03-06T21:31:31.395Z,97002.00
2023-03-06T21:34:06.825Z,96997.00
2023-03-06T21:36:42.918Z,97000.00
2023-03-06T21:39:17.832Z,97002.00
2023-03-06T21:41:52.802Z,97002.00
2023-03-06T21:44:27.744Z,96998.00
2023-03-06T21:47:02.661Z,97001.00
2023-03-06T21:49:37.633Z,96987.00
2023-03-06T21:52:12.636Z,96984.00
2023-03-06T21:54:49.446Z,96984.00
2023-03-06T21:57:24.416Z,96989.00
2023-03-06T21:59:59.317Z,96981.00
2023-03-06T22:02:35.362Z,96979.00
2023-03-06T22:05:10.720Z,96977.00
2023-03-06T22:07:45.732Z,96985.00
2023-03-06T22:10:20.654Z,96979.00
2023-03-06T22:12:55.521Z,96970.00
2023-03-06T22:15:30.646Z,96968.00
2023-03-06T22:18:06.609Z,96969.00
2023-03-06T22:20:41.543Z,96968.00
2023-03-06T22:23:16.426Z,96971.00
2023-03-06T22:25:51.440Z,96974.00
2023-03-06T22:28:27.243Z,96970.00
2023-03-06T22:31:13.970Z,96973.00
2023-03-06T22:33:52.240Z,96976.00
2023-03-06T22:36:30.108Z,96962.00
2023-03-06T22:39:04.999Z,96955.00
2023-03-06T22:41:40.025Z,96969.00
2023-03-06T22:44:18.362Z,96962.00
2023-03-06T22:46:53.458Z,96954.00
2023-03-06T22:49:28.334Z,96967.00
2023-03-06T22:52:03.642Z,96952.00
2023-03-06T22:54:38.529Z,96965.00
2023-03-06T22:57:13.368Z,96973.00
2023-03-06T22:59:48.220Z,96964.00
2023-03-06T23:02:23.343Z,96957.00
2023-03-06T23:04:58.274Z,96963.00
2023-03-06T23:07:33.210Z,96952.00
2023-03-06T23:10:11.796Z,96951.00
2023-03-06T23:13:05.514Z,96950.00
2023-03-06T23:16:06.763Z,96946.00
2023-03-06T23:19:00.681Z,96941.00
2023-03-06T23:21:54.599Z,96944.00
2023-03-06T23:24:48.193Z,96940.00
2023-03-06T23:27:23.180Z,96944.00
2023-03-06T23:29:58.976Z,96933.00
2023-03-06T23:32:34.355Z,96931.00
2023-03-06T23:35:09.630Z,96927.00
2023-03-06T23:37:44.471Z,96922.00
2023-03-06T23:40:19.799Z,96923.00
2023-03-06T23:42:54.844Z,96917.00
2023-03-06T23:45:30.288Z,96917.00
2023-03-06T23:48:07.893Z,96916.00
2023-03-06T23:50:42.808Z,96927.00
2023-03-06T23:53:18.202Z,96926.00
2023-03-06T23:55:53.762Z,96928.00
2023-03-06T23:58:28.795Z,96926.00
